Time;durP1;ratioP1;P1;durP2;ratioP2;P2;SDS_P1;SDS_P2;PMS_P1;PMS_P2;Temp;Humidity;BMP_temperature;BMP_pressure;BME280_temperature;BME280_humidity;BME280_pressure;Samples;Min_cycle;Max_cycle;Signal;HPM_P1;HPM_P2
2022/09/23 00:01:28;;;;;;;8.10;6.05;;;;;;;12.41;100.00;96655.03;5102031;28;20508;-55
2022/09/23 00:03:58;;;;;;;9.48;6.60;;;;;;;12.52;100.00;96648.69;5099201;28;20082;-53
2022/09/23 00:06:28;;;;;;;9.07;6.20;;;;;;;12.47;100.00;96646.50;5099579;28;20088;-54
2022/09/23 00:08:56;;;;;;;8.95;6.55;;;;;;;12.55;100.00;96645.72;5098638;28;20110;-55
2022/09/23 00:11:43;;;;;;;9.10;6.25;;;;;;;12.54;100.00;96647.56;5096750;28;20055;-54
2022/09/23 00:14:29;;;;;;;8.55;5.55;;;;;;;12.44;100.00;96654.72;5098872;28;20079;-52
2022/09/23 00:16:57;;;;;;;10.00;6.63;;;;;;;12.49;100.00;96649.84;5097965;28;20078;-52
2022/09/23 00:19:25;;;;;;;9.57;5.70;;;;;;;12.39;100.00;96649.09;5100604;28;20098;-53
2022/09/23 00:21:55;;;;;;;7.40;5.00;;;;;;;12.18;100.00;96646.72;5098743;28;20469;-54
2022/09/23 00:24:24;;;;;;;7.20;6.27;;;;;;;12.19;100.00;96648.38;5100244;28;20086;-56
2022/09/23 00:26:53;;;;;;;9.80;6.68;;;;;;;12.36;100.00;96644.09;5104371;28;20074;-56
2022/09/23 00:29:22;;;;;;;9.38;5.95;;;;;;;12.06;100.00;96639.97;5097091;28;20059;-51
2022/09/23 00:31:50;;;;;;;17.58;6.22;;;;;;;11.77;100.00;96637.50;5097457;28;20091;-55
2022/09/23 00:34:19;;;;;;;32.25;6.40;;;;;;;11.95;100.00;96640.22;5096711;28;20093;-55
2022/09/23 00:36:47;;;;;;;7.78;6.20;;;;;;;11.98;100.00;96634.63;5100093;28;20072;-53
2022/09/23 00:39:15;;;;;;;9.82;6.90;;;;;;;11.98;100.00;96637.25;5096527;28;20075;-57
2022/09/23 00:41:44;;;;;;;6.78;5.68;;;;;;;11.75;100.00;96637.63;5100467;28;20505;-52
2022/09/23 00:44:45;;;;;;;7.95;6.28;;;;;;;12.03;100.00;96630.53;5095981;28;20071;-57
2022/09/23 00:47:18;;;;;;;7.40;5.75;;;;;;;11.78;100.00;96639.16;5099746;28;20090;-55
2022/09/23 00:49:52;;;;;;;7.55;5.85;;;;;;;11.90;100.00;96638.00;5100913;28;20090;-57
2022/09/23 00:52:35;;;;;;;8.80;6.70;;;;;;;11.96;100.00;96631.28;5095121;28;20459;-52
2022/09/23 00:55:07;;;;;;;7.40;5.85;;;;;;;12.01;100.00;96629.00;5098852;28;20517;-53
2022/09/23 00:57:37;;;;;;;7.43;5.97;;;;;;;11.79;100.00;96633.72;5100103;28;20063;-55
2022/09/23 01:00:08;;;;;;;8.00;6.20;;;;;;;11.31;100.00;96636.59;5100580;28;20072;-55
2022/09/23 01:02:37;;;;;;;6.95;5.60;;;;;;;11.39;100.00;96626.16;5097424;28;20442;-57
2022/09/23 01:05:07;;;;;;;7.30;5.60;;;;;;;11.36;100.00;96623.78;5098092;28;20088;-54
2022/09/23 01:07:35;;;;;;;7.68;5.75;;;;;;;11.52;100.00;96628.44;5097155;28;20079;-57
2022/09/23 01:10:05;;;;;;;6.75;5.45;;;;;;;11.56;100.00;96620.09;5086434;28;20063;-54
2022/09/23 01:12:58;;;;;;;6.72;5.75;;;;;;;11.44;100.00;96618.59;5103501;28;20469;-57
2022/09/23 01:15:36;;;;;;;7.30;5.55;;;;;;;11.56;100.00;96614.81;5100817;28;20196;-54
2022/09/23 01:18:09;;;;;;;7.03;5.88;;;;;;;11.29;100.00;96618.25;5105773;28;20079;-50
2022/09/23 01:20:58;;;;;;;7.72;5.95;;;;;;;11.23;100.00;96615.38;5104476;28;20521;-53
2022/09/23 01:23:58;;;;;;;8.02;5.68;;;;;;;11.34;100.00;96612.53;5102613;28;20536;-56
2022/09/23 01:26:46;;;;;;;7.72;5.57;;;;;;;11.14;100.00;96602.03;5103997;28;20091;-56
2022/09/23 01:29:47;;;;;;;7.25;5.78;;;;;;;10.93;100.00;96606.69;5102370;28;20521;-57
2022/09/23 01:32:30;;;;;;;7.75;4.88;;;;;;;10.95;100.00;96607.41;5098843;28;20513;-56
2022/09/23 01:35:06;;;;;;;7.05;5.00;;;;;;;10.95;100.00;96598.66;5104218;28;20517;-53
2022/09/23 01:37:40;;;;;;;7.05;5.30;;;;;;;10.60;100.00;96605.41;5102841;28;20079;-51
2022/09/23 01:40:18;;;;;;;6.43;5.22;;;;;;;10.69;100.00;96605.34;5104406;28;20079;-52
2022/09/23 01:42:51;;;;;;;6.90;5.40;;;;;;;10.35;100.00;96607.63;5101956;28;20080;-52
2022/09/23 01:45:22;;;;;;;6.70;4.95;;;;;;;9.98;100.00;96595.13;5105904;28;20074;-54
2022/09/23 01:47:54;;;;;;;9.25;5.25;;;;;;;9.97;100.00;96595.25;5103191;27;20075;-57
2022/09/23 01:53:18;;;;;;;6.93;5.13;;;;;;;10.29;100.00;96591.53;5096775;28;20076;-52
2022/09/23 01:55:50;;;;;;;8.48;5.63;;;;;;;10.48;100.00;96594.16;5107041;27;20517;-54
2022/09/23 01:58:22;;;;;;;6.35;5.28;;;;;;;10.87;100.00;96592.28;5105182;28;20062;-56
2022/09/23 02:00:55;;;;;;;6.30;5.25;;;;;;;10.73;100.00;96589.25;5105347;28;20079;-54
2022/09/23 02:03:30;;;;;;;9.18;5.78;;;;;;;10.36;100.00;96592.66;5106790;28;20071;-55
2022/09/23 02:06:02;;;;;;;6.50;5.43;;;;;;;10.33;100.00;96588.50;5101368;28;20106;-54
2022/09/23 02:08:34;;;;;;;6.32;5.15;;;;;;;10.86;100.00;96584.50;5101006;28;20075;-53
2022/09/23 02:11:06;;;;;;;8.32;4.95;;;;;;;10.38;100.00;96582.78;5104374;28;20067;-53
2022/09/23 02:13:38;;;;;;;7.53;4.78;;;;;;;10.10;100.00;96574.72;5105008;28;20135;-55
2022/09/23 02:16:11;;;;;;;5.68;4.70;;;;;;;10.33;100.00;96574.47;5104238;28;20082;-50
2022/09/23 02:18:44;;;;;;;5.55;4.60;;;;;;;10.08;100.00;96583.72;5103526;28;20078;-50
2022/09/23 02:21:14;;;;;;;5.78;4.43;;;;;;;10.55;100.00;96583.88;5100278;28;20079;-55
2022/09/23 02:23:45;;;;;;;4.95;4.40;;;;;;;10.69;100.00;96584.25;5105844;28;20082;-54
2022/09/23 02:26:19;;;;;;;4.95;4.45;;;;;;;10.52;100.00;96595.53;5102455;27;20083;-50
2022/09/23 02:28:52;;;;;;;5.18;4.05;;;;;;;10.62;100.00;96587.59;5102058;28;20086;-52
2022/09/23 02:31:27;;;;;;;5.05;3.92;;;;;;;10.73;100.00;96594.53;5100333;28;20076;-55
2022/09/23 02:34:00;;;;;;;5.00;4.40;;;;;;;10.76;100.00;96594.25;5101258;28;20079;-55
2022/09/23 02:36:32;;;;;;;4.88;4.10;;;;;;;10.64;100.00;96589.13;5100901;28;20083;-56
2022/09/23 02:39:03;;;;;;;6.28;4.30;;;;;;;10.56;100.00;96594.28;5103536;28;20071;-56
2022/09/23 02:41:36;;;;;;;5.28;4.53;;;;;;;10.12;100.00;96591.25;5096152;28;20517;-52
2022/09/23 02:44:07;;;;;;;6.70;4.70;;;;;;;10.11;100.00;96592.19;5095481;28;20106;-55
2022/09/23 02:46:36;;;;;;;5.68;4.90;;;;;;;10.36;100.00;96582.94;5100334;27;20075;-56
2022/09/23 02:49:11;;;;;;;5.38;4.55;;;;;;;10.48;100.00;96588.88;5096578;27;20087;-55
2022/09/23 02:51:40;;;;;;;7.50;4.93;;;;;;;10.07;100.00;96585.53;5101038;28;20110;-53
2022/09/23 02:54:13;;;;;;;6.03;5.43;;;;;;;10.08;100.00;96586.38;5103724;28;20079;-58
2022/09/23 02:56:42;;;;;;;6.28;5.57;;;;;;;10.25;100.00;96580.41;5100303;28;20463;-55
2022/09/23 02:59:11;;;;;;;7.40;5.60;;;;;;;9.56;100.00;96577.84;5101008;28;20127;-57
2022/09/23 03:01:46;;;;;;;6.38;5.50;;;;;;;9.54;100.00;96575.38;5100946;28;20091;-56
2022/09/23 03:04:24;;;;;;;7.38;5.15;;;;;;;10.06;100.00;96570.72;5102243;28;20083;-52
2022/09/23 03:06:59;;;;;;;6.72;5.50;;;;;;;10.22;100.00;96568.34;5099335;28;20079;-52
2022/09/23 03:09:31;;;;;;;7.55;5.30;;;;;;;10.41;100.00;96566.69;5098397;28;20083;-55
2022/09/23 03:12:06;;;;;;;6.38;5.35;;;;;;;10.40;100.00;96571.13;5095470;28;20075;-58
2022/09/23 03:14:41;;;;;;;5.15;4.65;;;;;;;10.48;100.00;96559.88;5099979;28;20091;-51
2022/09/23 03:17:13;;;;;;;5.38;4.82;;;;;;;10.34;100.00;96562.97;5103250;28;20093;-49
2022/09/23 03:19:47;;;;;;;6.63;5.07;;;;;;;10.34;100.00;96563.78;5100974;28;20075;-57
2022/09/23 03:22:17;;;;;;;6.68;4.85;;;;;;;10.04;100.00;96572.63;5103433;28;20075;-53
2022/09/23 03:24:46;;;;;;;6.45;5.50;;;;;;;9.79;100.00;96570.56;5097540;28;20091;-54
2022/09/23 03:27:22;;;;;;;5.60;5.10;;;;;;;9.99;100.00;96572.22;5097032;28;20080;-55
2022/09/23 03:29:52;;;;;;;6.93;5.80;;;;;;;10.07;100.00;96571.53;5097344;28;20075;-54
2022/09/23 03:32:25;;;;;;;6.07;5.15;;;;;;;10.13;100.00;96571.00;5100294;28;20094;-54
2022/09/23 03:34:57;;;;;;;6.95;5.88;;;;;;;9.97;100.00;96563.63;5103540;28;20087;-55
2022/09/23 03:37:30;;;;;;;8.23;5.80;;;;;;;10.11;100.00;96565.84;5104095;28;20086;-56
2022/09/23 03:40:03;;;;;;;7.85;5.65;;;;;;;10.09;100.00;96569.59;5099378;28;20082;-54
2022/09/23 03:42:32;;;;;;;7.40;5.80;;;;;;;9.61;100.00;96568.59;5103299;27;20086;-54
2022/09/23 03:45:06;;;;;;;8.07;6.80;;;;;;;8.73;100.00;96583.22;5103310;28;20084;-56
2022/09/23 03:47:35;;;;;;;11.95;7.05;;;;;;;8.98;100.00;96578.47;5103007;28;20541;-53
2022/09/23 03:50:05;;;;;;;9.27;7.28;;;;;;;9.54;100.00;96569.28;5104367;28;20071;-54
2022/09/23 03:52:34;;;;;;;11.00;6.55;;;;;;;9.40;100.00;96570.50;5090748;28;20087;-55
2022/09/23 03:55:02;;;;;;;9.30;7.18;;;;;;;9.48;100.00;96571.47;5095608;28;20086;-55
2022/09/23 03:57:31;;;;;;;9.38;7.18;;;;;;;9.49;100.00;96565.22;5095909;28;20087;-56
2022/09/23 03:59:59;;;;;;;10.27;7.22;;;;;;;8.92;100.00;96563.25;5096895;27;20079;-57
2022/09/23 04:02:27;;;;;;;9.73;7.35;;;;;;;8.90;100.00;96571.25;5100703;27;20514;-56
2022/09/23 04:04:56;;;;;;;9.55;7.60;;;;;;;9.52;100.00;96559.69;5095964;28;20572;-56
2022/09/23 04:07:26;;;;;;;9.23;7.38;;;;;;;9.43;100.00;96557.06;5094177;28;20079;-53
2022/09/23 04:09:54;;;;;;;9.93;7.40;;;;;;;8.73;100.00;96563.97;5093153;28;20182;-56
2022/09/23 04:12:22;;;;;;;10.32;7.95;;;;;;;8.79;100.00;96569.53;5094177;28;20060;-55
2022/09/23 04:14:51;;;;;;;10.23;7.38;;;;;;;9.31;100.00;96558.13;5094525;28;20080;-54
2022/09/23 04:17:19;;;;;;;9.60;7.47;;;;;;;9.41;100.00;96553.72;5097345;27;20075;-52
2022/09/23 04:19:47;;;;;;;13.15;8.63;;;;;;;9.41;100.00;96548.47;5092922;28;20563;-54
2022/09/23 04:22:16;;;;;;;30.80;9.32;;;;;;;9.14;100.00;96559.59;5096007;28;20071;-51
2022/09/23 04:24:45;;;;;;;12.93;8.73;;;;;;;9.14;100.00;96554.31;5103318;28;20094;-52
2022/09/23 04:27:14;;;;;;;12.37;8.90;;;;;;;8.93;100.00;96562.28;5108663;28;20079;-57
2022/09/23 04:29:42;;;;;;;11.65;8.27;;;;;;;8.96;100.00;96564.66;5106951;28;20103;-54
2022/09/23 04:32:10;;;;;;;13.45;8.98;;;;;;;8.59;100.00;96564.31;5109085;28;20462;-54
2022/09/23 04:34:39;;;;;;;15.93;10.27;;;;;;;9.00;100.00;96561.63;5109188;28;20087;-56
2022/09/23 04:37:07;;;;;;;15.77;10.45;;;;;;;8.45;100.00;96557.59;5109638;27;20075;-52
2022/09/23 04:39:35;;;;;;;15.95;10.70;;;;;;;8.94;100.00;96558.69;5120150;28;20576;-54
2022/09/23 04:42:06;;;;;;;15.38;9.20;;;;;;;9.19;100.00;96554.78;5106814;28;20076;-57
2022/09/23 04:44:34;;;;;;;14.68;10.00;;;;;;;8.83;100.00;96559.59;5096163;28;20071;-51
2022/09/23 04:47:03;;;;;;;15.80;9.40;;;;;;;8.83;100.00;96556.97;5109024;28;20075;-56
2022/09/23 04:49:32;;;;;;;17.80;8.95;;;;;;;8.93;100.00;96555.22;5109071;28;20079;-51
2022/09/23 04:52:01;;;;;;;11.52;8.27;;;;;;;9.15;100.00;96553.34;5108629;28;20067;-54
2022/09/23 04:54:30;;;;;;;12.20;9.18;;;;;;;8.39;100.00;96558.09;5109103;28;20098;-57
2022/09/23 04:56:58;;;;;;;10.32;8.20;;;;;;;8.75;100.00;96552.38;5108142;28;20113;-55
2022/09/23 04:59:29;;;;;;;10.65;7.90;;;;;;;8.75;100.00;96557.63;5108100;28;20071;-55
2022/09/23 05:01:57;;;;;;;;;;;;;;;9.41;100.00;96545.81;5109239;28;20082;-55
2022/09/23 05:04:25;;;;;;;11.38;8.15;;;;;;;9.34;100.00;96547.34;5108392;28;20362;-54
2022/09/23 05:06:53;;;;;;;12.18;7.53;;;;;;;9.09;100.00;96557.38;5089304;28;20579;-52
2022/09/23 05:09:24;;;;;;;10.70;7.25;;;;;;;9.36;100.00;96553.28;5088523;28;20072;-54
2022/09/23 05:11:53;;;;;;;9.10;7.55;;;;;;;8.91;100.00;96564.19;5088069;28;20080;-56
2022/09/23 05:14:21;;;;;;;10.40;7.97;;;;;;;9.38;100.00;96560.06;5088903;28;20076;-56
2022/09/23 05:16:51;;;;;;;12.48;8.98;;;;;;;9.24;100.00;96558.66;5088392;28;20091;-54
2022/09/23 05:19:19;;;;;;;10.50;8.20;;;;;;;8.63;100.00;96568.34;5086050;28;20730;-52
2022/09/23 05:21:47;;;;;;;13.05;8.38;;;;;;;8.85;100.00;96567.38;5088421;28;20075;-52
2022/09/23 05:24:16;;;;;;;9.82;7.95;;;;;;;9.02;100.00;96569.38;5082949;28;20084;-52
2022/09/23 05:26:44;;;;;;;16.08;11.02;;;;;;;9.42;100.00;96560.63;5087241;28;20083;-54
2022/09/23 05:29:13;;;;;;;10.80;8.20;;;;;;;8.87;100.00;96563.63;5088348;28;20090;-54
2022/09/23 05:31:41;;;;;;;10.38;8.30;;;;;;;9.52;100.00;96564.13;5088468;28;20088;-57
2022/09/23 05:34:11;;;;;;;10.45;8.15;;;;;;;9.58;100.00;96563.59;5091797;28;20084;-55
2022/09/23 05:36:39;;;;;;;11.35;8.07;;;;;;;9.70;100.00;96557.25;5088516;28;20092;-57
2022/09/23 05:39:08;;;;;;;17.60;12.07;;;;;;;9.26;100.00;96567.25;5089921;28;20079;-53
2022/09/23 05:41:36;;;;;;;20.52;13.80;;;;;;;9.34;100.00;96571.00;5088997;28;20084;-57
2022/09/23 05:44:05;;;;;;;15.98;10.85;;;;;;;9.74;100.00;96555.16;5088385;28;20542;-52
2022/09/23 05:46:34;;;;;;;11.60;9.05;;;;;;;9.16;100.00;96562.94;5088111;28;20086;-56
2022/09/23 05:49:03;;;;;;;8.88;7.57;;;;;;;9.24;100.00;96563.91;5088171;28;20079;-54
2022/09/23 05:51:34;;;;;;;9.35;7.88;;;;;;;10.14;100.00;96557.66;5087905;28;20080;-52
2022/09/23 05:54:04;;;;;;;11.57;8.10;;;;;;;10.39;100.00;96551.03;5084518;28;20591;-54
2022/09/23 05:56:33;;;;;;;10.45;7.85;;;;;;;10.94;100.00;96550.31;5085723;28;20511;-57
2022/09/23 05:59:03;;;;;;;10.73;7.50;;;;;;;10.87;100.00;96555.34;5091115;28;20087;-53
2022/09/23 06:01:32;;;;;;;9.70;7.75;;;;;;;11.09;100.00;96554.16;5091662;28;20083;-51
2022/09/23 06:04:02;;;;;;;9.98;7.82;;;;;;;10.93;100.00;96554.75;5091857;28;20071;-51
2022/09/23 06:06:34;;;;;;;13.20;7.53;;;;;;;10.88;100.00;96557.00;5089703;28;20080;-55
2022/09/23 06:09:03;;;;;;;9.80;7.57;;;;;;;10.82;100.00;96557.56;5111710;28;20105;-53
2022/09/23 06:11:32;;;;;;;8.57;6.95;;;;;;;10.80;100.00;96559.50;5114010;27;20083;-52
2022/09/23 06:14:01;;;;;;;10.75;7.80;;;;;;;11.10;100.00;96561.09;5107754;28;20509;-53
2022/09/23 06:16:31;;;;;;;11.30;7.47;;;;;;;10.82;100.00;96559.38;5094496;28;20071;-52
2022/09/23 06:19:04;;;;;;;10.18;7.43;;;;;;;11.09;100.00;96558.59;5111153;28;20482;-52
2022/09/23 06:21:37;;;;;;;8.95;7.32;;;;;;;11.00;100.00;96555.00;5109080;28;20522;-56
2022/09/23 06:24:07;;;;;;;12.73;8.57;;;;;;;11.48;100.00;96553.13;5111257;28;20075;-52
2022/09/23 06:26:36;;;;;;;11.40;8.38;;;;;;;11.84;100.00;96544.31;5111766;28;20091;-57
2022/09/23 06:29:10;;;;;;;11.30;7.65;;;;;;;11.65;100.00;96547.88;5110806;28;20075;-53
2022/09/23 06:31:40;;;;;;;10.75;8.52;;;;;;;12.12;100.00;96552.16;5115945;27;20083;-58
2022/09/23 06:34:09;;;;;;;;;;;;;;;12.21;100.00;96547.75;5111309;28;20463;-53
2022/09/23 06:36:42;;;;;;;13.88;8.13;;;;;;;12.11;100.00;96551.34;5110801;28;20390;-55
2022/09/23 06:39:13;;;;;;;12.02;8.27;;;;;;;12.45;100.00;96549.75;5111376;28;20075;-57
2022/09/23 06:41:42;;;;;;;12.77;8.88;;;;;;;12.48;100.00;96552.94;5111044;28;20552;-50
2022/09/23 06:44:10;;;;;;;12.25;9.75;;;;;;;12.30;100.00;96554.78;5111269;28;20162;-52
2022/09/23 06:46:39;;;;;;;13.48;9.63;;;;;;;12.24;100.00;96564.16;5111209;28;20097;-58
2022/09/23 06:49:10;;;;;;;13.45;10.15;;;;;;;12.46;100.00;96551.44;5110350;28;20071;-52
2022/09/23 06:51:39;;;;;;;17.20;10.45;;;;;;;11.74;100.00;96555.91;5110540;28;20087;-57
2022/09/23 06:54:09;;;;;;;19.17;10.98;;;;;;;12.93;100.00;96551.91;5110865;28;20067;-50
2022/09/23 06:56:38;;;;;;;15.63;11.25;;;;;;;12.71;100.00;96544.50;5110824;28;20744;-55
2022/09/23 06:59:07;;;;;;;17.17;10.88;;;;;;;13.42;100.00;96546.03;5110423;28;20467;-51
2022/09/23 07:01:36;;;;;;;12.40;9.25;;;;;;;12.32;100.00;96556.31;5110631;28;20094;-58
2022/09/23 07:04:06;;;;;;;15.30;10.18;;;;;;;13.54;100.00;96550.88;5108167;28;20079;-52
2022/09/23 07:06:35;;;;;;;12.93;9.85;;;;;;;13.94;100.00;96545.84;5112239;27;20564;-55
2022/09/23 07:09:05;;;;;;;13.18;8.57;;;;;;;12.56;100.00;96555.66;5118521;27;20076;-54
2022/09/23 07:11:35;;;;;;;10.77;8.40;;;;;;;12.69;100.00;96555.22;5115380;27;20079;-55
2022/09/23 07:14:03;;;;;;;12.20;8.85;;;;;;;14.22;100.00;96555.16;5107696;28;20596;-53
2022/09/23 07:16:32;;;;;;;11.70;9.13;;;;;;;14.45;100.00;96547.38;5109797;27;20746;-57
2022/09/23 07:19:01;;;;;;;14.15;9.10;;;;;;;13.60;100.00;96551.25;5103325;27;20062;-54
2022/09/23 07:21:30;;;;;;;11.43;8.65;;;;;;;14.05;100.00;96550.00;5121903;27;20083;-53
2022/09/23 07:23:58;;;;;;;11.68;8.43;;;;;;;14.52;100.00;96549.38;5129927;27;20529;-55
2022/09/23 07:26:28;;;;;;;9.05;7.70;;;;;;;14.02;100.00;96546.69;5115544;27;20075;-55
2022/09/23 07:29:03;;;;;;;10.27;7.67;;;;;;;14.14;100.00;96546.34;5110000;27;20090;-57
2022/09/23 07:31:33;;;;;;;10.15;7.65;;;;;;;14.62;100.00;96547.38;5115774;27;20499;-54
2022/09/23 07:34:08;;;;;;;11.18;8.00;;;;;;;14.48;100.00;96544.38;5114966;27;20071;-51
2022/09/23 07:36:39;;;;;;;8.88;7.25;;;;;;;15.14;100.00;96541.63;5106892;27;20104;-52
2022/09/23 07:39:09;;;;;;;9.50;7.50;;;;;;;15.98;100.00;96540.09;5118866;27;20600;-54
2022/09/23 07:41:40;;;;;;;9.65;6.75;;;;;;;15.94;100.00;96545.94;5116791;27;20070;-54
2022/09/23 07:44:10;;;;;;;;;;;;;;;15.63;100.00;96541.44;5127452;27;20059;-51
2022/09/23 07:46:38;;;;;;;9.18;6.90;;;;;;;15.66;100.00;96555.25;5108103;27;19967;-57
2022/09/23 07:49:07;;;;;;;11.57;6.63;;;;;;;15.92;100.00;96545.28;5111211;27;20105;-50
2022/09/23 07:51:37;;;;;;;9.60;6.85;;;;;;;16.78;100.00;96549.47;5114796;27;20106;-55
2022/09/23 07:54:07;;;;;;;8.10;6.82;;;;;;;15.42;100.00;96553.50;5116827;27;20071;-55
2022/09/23 07:56:36;;;;;;;8.15;6.68;;;;;;;15.08;100.00;96555.59;5117223;27;20087;-54
2022/09/23 07:59:07;;;;;;;8.20;6.57;;;;;;;15.34;100.00;96556.16;5115572;27;20482;-53
2022/09/23 08:01:40;;;;;;;7.70;6.78;;;;;;;17.13;100.00;96550.59;5107238;27;21003;-53
2022/09/23 08:04:12;;;;;;;8.50;6.28;;;;;;;17.63;100.00;96540.19;5110918;27;20567;-53
2022/09/23 08:06:42;;;;;;;8.50;6.70;;;;;;;17.07;100.00;96552.16;5119130;27;20086;-51
2022/09/23 08:09:11;;;;;;;8.88;6.53;;;;;;;17.68;100.00;96543.94;5113434;27;20529;-52
2022/09/23 08:11:40;;;;;;;8.90;6.80;;;;;;;17.54;100.00;96545.59;5105111;27;20078;-50
2022/09/23 08:14:09;;;;;;;8.45;6.43;;;;;;;16.99;100.00;96551.41;5109292;27;20086;-55
2022/09/23 08:16:39;;;;;;;7.60;6.43;;;;;;;17.52;100.00;96541.50;5116557;27;20398;-56
2022/09/23 08:19:08;;;;;;;8.07;6.03;;;;;;;18.45;97.21;96542.53;5120853;27;20074;-53
2022/09/23 08:21:38;;;;;;;7.55;6.32;;;;;;;18.56;97.57;96551.84;5114877;27;20562;-53
2022/09/23 08:24:06;;;;;;;7.35;6.30;;;;;;;18.04;100.00;96548.47;5109922;27;20074;-53
2022/09/23 08:26:35;;;;;;;6.60;5.60;;;;;;;17.43;100.00;96563.94;5111156;27;20082;-55
2022/09/23 08:29:03;;;;;;;10.98;5.78;;;;;;;18.00;100.00;96555.22;5116751;27;20084;-55
2022/09/23 08:31:32;;;;;;;10.25;5.97;;;;;;;18.96;86.33;96545.00;5115760;27;20078;-56
2022/09/23 08:34:02;;;;;;;6.88;5.68;;;;;;;18.08;93.44;96551.59;5119009;27;20079;-55
2022/09/23 08:36:31;;;;;;;6.55;5.22;;;;;;;18.81;96.72;96542.41;5109522;28;20083;-57
2022/09/23 08:38:59;;;;;;;6.97;5.40;;;;;;;17.61;100.00;96555.53;5116005;27;20075;-57
2022/09/23 08:41:36;;;;;;;7.43;5.55;;;;;;;18.43;100.00;96545.38;5109780;28;20848;-55
2022/09/23 08:44:09;;;;;;;5.75;5.15;;;;;;;18.61;87.60;96547.56;5112355;28;20056;-52
2022/09/23 08:46:41;;;;;;;7.20;5.78;;;;;;;17.67;100.00;96547.63;5125001;28;20090;-49
2022/09/23 08:49:16;;;;;;;5.70;4.75;;;;;;;19.26;81.25;96539.44;5113577;28;20451;-56
2022/09/23 08:51:46;;;;;;;7.45;5.00;;;;;;;19.11;86.12;96543.03;5111301;28;20087;-57
2022/09/23 08:54:16;;;;;;;6.18;5.40;;;;;;;20.20;70.63;96528.06;5112086;28;20087;-56
2022/09/23 08:56:47;;;;;;;6.40;4.97;;;;;;;19.15;82.01;96533.59;5108599;28;20086;-58
2022/09/23 08:59:19;;;;;;;6.00;5.03;;;;;;;19.84;76.55;96538.06;5114133;28;20074;-54
2022/09/23 09:01:50;;;;;;;6.53;5.40;;;;;;;19.31;80.27;96535.16;5121039;28;20445;-56
2022/09/23 09:04:24;;;;;;;5.55;4.97;;;;;;;20.01;71.59;96532.34;5103074;28;20083;-54
2022/09/23 09:06:56;;;;;;;7.65;4.75;;;;;;;20.21;67.34;96527.06;5108188;28;20092;-54
2022/09/23 09:09:47;;;;;;;8.93;4.75;;;;;;;19.89;71.65;96535.63;5082160;28;20906;-57
2022/09/23 09:12:17;;;;;;;5.93;4.70;;;;;;;19.53;75.61;96535.84;5088697;28;20075;-50
2022/09/23 09:14:51;;;;;;;5.65;4.50;;;;;;;20.45;64.16;96528.31;5094621;28;20549;-56
2022/09/23 09:17:29;;;;;;;5.35;4.40;;;;;;;20.78;61.79;96517.63;5100408;28;20087;-52
2022/09/23 09:20:12;;;;;;;6.63;4.25;;;;;;;21.14;59.65;96524.41;5087987;28;20079;-51
2022/09/23 09:22:48;;;;;;;7.28;4.68;;;;;;;20.48;60.67;96528.75;5095529;28;20533;-55
2022/09/23 09:25:25;;;;;;;5.97;4.40;;;;;;;20.12;66.01;96519.19;5091395;28;20072;-56
2022/09/23 09:27:59;;;;;;;6.22;4.65;;;;;;;20.45;65.92;96523.78;5090792;28;20418;-57
2022/09/23 09:30:28;;;;;;;8.60;4.88;;;;;;;20.84;65.93;96516.78;5096932;28;20094;-55
2022/09/23 09:33:00;;;;;;;8.23;4.65;;;;;;;21.71;57.82;96502.16;5099253;28;20083;-57
2022/09/23 09:35:36;;;;;;;5.90;4.90;;;;;;;21.40;58.70;96502.06;5095217;28;20083;-55
2022/09/23 09:38:05;;;;;;;5.28;4.60;;;;;;;21.65;58.15;96499.50;5093050;28;20546;-55
2022/09/23 09:40:35;;;;;;;5.13;4.47;;;;;;;22.25;56.55;96492.75;5095483;28;20086;-57
2022/09/23 09:43:04;;;;;;;5.60;4.47;;;;;;;20.42;61.78;96507.31;5105717;28;20088;-52
2022/09/23 09:45:53;;;;;;;6.70;4.25;;;;;;;21.86;55.86;96493.81;5096154;28;20113;-51
2022/09/23 09:48:31;;;;;;;6.30;4.45;;;;;;;22.35;52.81;96486.91;5092683;28;20083;-50
2022/09/23 09:51:18;;;;;;;6.07;4.30;;;;;;;22.60;52.49;96488.78;5105827;28;20146;-50
2022/09/23 09:53:50;;;;;;;7.40;4.30;;;;;;;22.13;54.34;96496.34;5099761;28;20079;-51
2022/09/23 09:56:21;;;;;;;7.38;4.20;;;;;;;22.72;52.82;96485.16;5106136;28;20074;-53
2022/09/23 09:58:52;;;;;;;4.70;4.20;;;;;;;22.01;53.49;96488.16;5103972;28;20071;-52
2022/09/23 10:01:22;;;;;;;9.32;4.40;;;;;;;22.89;51.19;96473.84;5088015;28;20087;-54
2022/09/23 10:03:52;;;;;;;7.50;4.30;;;;;;;22.26;53.31;96472.94;5092464;28;20087;-55
2022/09/23 10:06:29;;;;;;;16.10;4.43;;;;;;;22.51;50.12;96477.50;5101178;28;20079;-53
2022/09/23 10:09:13;;;;;;;5.45;4.20;;;;;;;23.03;47.45;96479.94;5081768;28;20079;-56
2022/09/23 10:11:42;;;;;;;5.32;4.10;;;;;;;23.17;46.55;96471.50;5103576;28;20088;-51
2022/09/23 10:14:13;;;;;;;7.93;4.55;;;;;;;22.39;50.57;96473.88;5104947;28;20079;-53
2022/09/23 10:16:42;;;;;;;7.05;4.72;;;;;;;23.09;47.60;96474.50;5099704;28;20479;-56
2022/09/23 10:19:15;;;;;;;5.07;4.15;;;;;;;22.85;47.67;96462.72;5090794;28;20080;-52
2022/09/23 10:21:53;;;;;;;4.72;4.07;;;;;;;23.68;47.52;96461.41;5095064;28;20090;-53
2022/09/23 10:24:24;;;;;;;6.82;4.57;;;;;;;22.95;47.95;96459.53;5094141;28;20091;-53
2022/09/23 10:26:56;;;;;;;5.25;4.40;;;;;;;23.79;47.07;96457.13;5104676;28;20525;-51
2022/09/23 10:29:30;;;;;;;5.15;4.57;;;;;;;23.47;48.16;96457.31;5106993;28;20573;-51
2022/09/23 10:32:18;;;;;;;5.53;4.05;;;;;;;23.68;46.42;96456.84;5098124;28;20487;-54
2022/09/23 10:34:49;;;;;;;5.88;4.35;;;;;;;23.90;45.32;96453.66;5080846;28;20083;-54
2022/09/23 10:37:30;;;;;;;7.35;4.40;;;;;;;24.13;45.02;96458.28;5087015;28;20098;-56
2022/09/23 10:48:40;;;;;;;4.95;3.97;;;;;;;24.62;44.75;96453.59;5100028;28;20090;-56
2022/09/23 10:51:14;;;;;;;4.95;4.05;;;;;;;24.95;42.85;96444.06;5090090;28;20090;-56
2022/09/23 10:53:50;;;;;;;4.13;3.55;;;;;;;24.60;42.98;96442.22;5094388;28;20075;-52
2022/09/23 10:56:25;;;;;;;7.00;4.00;;;;;;;24.46;43.20;96443.50;5095157;28;20087;-55
2022/09/23 10:59:28;;;;;;;4.30;3.70;;;;;;;24.65;42.69;96434.25;5095585;28;20084;-58
2022/09/23 11:02:02;;;;;;;5.15;4.22;;;;;;;24.82;41.30;96431.66;5092844;28;20086;-54
2022/09/23 11:04:53;;;;;;;5.15;3.47;;;;;;;24.04;42.82;96432.72;5093268;28;20075;-55
2022/09/23 11:07:27;;;;;;;6.03;3.45;;;;;;;24.39;42.44;96425.50;5101226;28;20542;-54
2022/09/23 11:10:14;;;;;;;5.50;4.07;;;;;;;24.67;41.78;96424.03;5097833;28;20075;-51
2022/09/23 11:13:09;;;;;;;6.28;4.00;;;;;;;23.91;44.33;96426.47;5087564;28;20091;-56
2022/09/23 11:15:46;;;;;;;5.65;4.00;;;;;;;25.42;40.48;96419.75;5087431;28;20479;-52
2022/09/23 11:18:28;;;;;;;8.73;4.15;;;;;;;25.65;40.01;96414.25;5085676;28;20087;-57
2022/09/23 11:21:01;;;;;;;4.22;3.75;;;;;;;25.95;39.21;96405.13;5087118;28;20550;-54
2022/09/23 11:23:48;;;;;;;4.78;3.40;;;;;;;25.48;40.48;96403.41;5106620;28;20090;-55
2022/09/23 11:26:26;;;;;;;4.43;3.67;;;;;;;24.66;41.43;96418.88;5088103;28;20077;-54
2022/09/23 11:29:33;;;;;;;4.22;3.55;;;;;;;24.21;41.30;96405.94;5092137;28;20557;-53
2022/09/23 11:32:10;;;;;;;5.25;3.50;;;;;;;24.93;41.06;96406.56;5087234;28;20504;-54
2022/09/23 11:34:51;;;;;;;4.13;3.20;;;;;;;24.66;40.03;96406.22;5083604;28;20071;-52
2022/09/23 11:37:25;;;;;;;4.60;3.63;;;;;;;24.23;39.14;96396.56;5085600;28;20072;-53
2022/09/23 11:39:59;;;;;;;5.13;4.15;;;;;;;24.29;39.33;96395.63;5104521;28;20091;-53
2022/09/23 11:42:32;;;;;;;5.80;3.60;;;;;;;24.47;38.94;96396.63;5092043;28;20075;-56
2022/09/23 11:45:06;;;;;;;4.35;3.95;;;;;;;25.75;37.29;96383.91;5101283;28;20522;-51
2022/09/23 11:47:36;;;;;;;5.05;3.70;;;;;;;25.51;38.60;96386.72;5104116;28;20072;-55
2022/09/23 11:50:16;;;;;;;6.30;4.13;;;;;;;24.62;39.91;96389.69;5096917;28;20079;-52
2022/09/23 11:52:47;;;;;;;5.13;3.75;;;;;;;25.91;38.18;96379.63;5098657;28;20082;-57
2022/09/23 11:55:18;;;;;;;5.05;3.60;;;;;;;26.17;37.59;96373.59;5092549;28;20075;-52
2022/09/23 11:57:54;;;;;;;5.97;3.33;;;;;;;26.43;36.91;96366.72;5092111;28;20087;-58
2022/09/23 12:00:23;;;;;;;5.53;3.60;;;;;;;26.69;35.54;96370.63;5095509;28;20080;-58
2022/09/23 12:03:00;;;;;;;5.87;3.93;;;;;;;26.66;35.59;96367.59;5098364;28;20087;-55